Time;durP1;ratioP1;P1;durP2;ratioP2;P2;SDS_P1;SDS_P2;PMS_P1;PMS_P2;Temp;Humidity;BMP_temperature;BMP_pressure;BME280_temperature;BME280_humidity;BME280_pressure;Samples;Min_cycle;Max_cycle;Signal;HPM_P1;HPM_P2
2022/11/25 00:00:45;;;;;;;;;4.00;4.00;;;;;11.84;89.33;100467.97;5029894;28;45183;-84
2022/11/25 00:03:10;;;;;;;;;3.00;3.00;;;;;12.00;89.60;100489.44;5066886;28;45224;-84
2022/11/25 00:05:36;;;;;;;;;5.00;4.00;;;;;11.73;90.34;100445.72;5069962;28;61800;-84
2022/11/25 00:08:01;;;;;;;;;4.00;3.75;;;;;12.03;90.04;100494.78;5070844;28;45076;-84
2022/11/25 00:10:26;;;;;;;;;2.67;2.33;;;;;11.98;90.45;100486.75;5057755;28;50797;-84
2022/11/25 00:12:51;;;;;;;;;3.33;3.33;;;;;11.95;89.72;100491.94;5067662;28;45829;-84
2022/11/25 00:15:17;;;;;;;;;3.67;2.33;;;;;11.78;87.86;100461.66;5061180;28;45937;-84
2022/11/25 00:17:42;;;;;;;;;4.33;3.00;;;;;11.62;87.45;100410.34;5058394;28;61954;-84
2022/11/25 00:20:08;;;;;;;;;3.00;2.33;;;;;12.10;86.95;100504.59;5067664;28;55955;-83
2022/11/25 00:22:33;;;;;;;;;1.50;0.75;;;;;11.99;86.08;100474.47;5072063;28;44865;-84
2022/11/25 00:24:58;;;;;;;;;3.00;2.00;;;;;12.00;86.00;100478.88;5068780;28;51009;-84
2022/11/25 00:27:24;;;;;;;;;3.25;3.25;;;;;11.74;86.03;100436.09;5058560;28;45418;-85
2022/11/25 00:29:49;;;;;;;;;4.33;4.00;;;;;11.79;85.87;100437.09;5053920;28;47283;-84
2022/11/25 00:32:14;;;;;;;;;5.00;5.00;;;;;11.66;85.81;100414.81;5058082;28;45244;-84
2022/11/25 00:34:39;;;;;;;;;3.00;2.33;;;;;11.78;85.43;100438.84;5061760;28;57695;-84
2022/11/25 00:37:05;;;;;;;;;3.67;3.33;;;;;11.99;85.67;100482.38;5055102;28;54517;-83
2022/11/25 00:39:30;;;;;;;;;4.00;4.00;;;;;11.91;86.03;100468.13;5035258;28;45470;-84
2022/11/25 00:44:39;;;;;;;;;3.25;2.50;;;;;12.03;85.54;100497.41;5038123;28;45443;-84
2022/11/25 00:47:12;;;;;;;;;0.00;0.00;;;;;12.10;85.42;100518.66;5043073;28;45441;-84
2022/11/25 00:49:39;;;;;;;;;3.00;3.00;;;;;12.01;85.37;100525.44;5037363;28;45377;-84
2022/11/25 00:52:06;;;;;;;;;2.75;2.25;;;;;11.96;85.81;100527.06;5037961;28;45351;-83
2022/11/25 00:54:31;;;;;;;;;3.25;3.00;;;;;11.90;85.67;100525.16;5040880;28;46491;-84
2022/11/25 00:56:57;;;;;;;;;3.00;2.00;;;;;11.81;85.23;100517.00;5044401;28;45385;-84
2022/11/25 00:59:23;;;;;;;;;4.00;4.00;;;;;11.66;85.40;100501.69;5042362;28;45363;-83
2022/11/25 01:01:48;;;;;;;;;3.25;2.25;;;;;11.78;85.47;100525.72;5046642;28;45345;-86
2022/11/25 01:04:14;;;;;;;;;3.00;2.00;;;;;11.71;85.86;100515.88;5047999;28;46490;-84
2022/11/25 01:06:40;;;;;;;;;2.00;1.50;;;;;11.36;85.37;100464.94;5056206;28;45447;-84
2022/11/25 01:09:07;;;;;;;;;2.50;1.50;;;;;11.54;85.73;100509.28;5040554;28;45486;-84
2022/11/25 01:11:33;;;;;;;;;4.00;3.00;;;;;11.62;85.25;100540.22;5040224;28;45301;-84
2022/11/25 01:13:58;;;;;;;;;2.00;2.00;;;;;11.46;85.62;100530.13;5040855;28;46272;-84
2022/11/25 01:16:24;;;;;;;;;4.00;1.75;;;;;11.56;85.33;100558.47;5037115;28;45403;-85
2022/11/25 01:18:50;;;;;;;;;2.00;1.50;;;;;10.99;85.41;100456.03;5051062;28;45052;-84
2022/11/25 01:21:21;;;;;;;;;4.00;3.00;;;;;11.47;85.48;100555.56;5064571;28;45445;-84
2022/11/25 01:23:48;;;;;;;;;3.00;3.00;;;;;10.95;85.31;100482.22;5064798;28;45536;-84
2022/11/25 01:26:19;;;;;;;;;3.00;2.50;;;;;11.01;85.55;100499.03;5067107;28;45590;-84
2022/11/25 01:28:45;;;;;;;;;4.00;4.00;;;;;10.98;85.80;100505.94;5072889;28;44925;-84
2022/11/25 01:31:14;;;;;;;;;3.00;3.00;;;;;11.25;85.94;100556.72;5074979;28;45436;-83
2022/11/25 01:33:40;;;;;;;;;4.00;3.00;;;;;11.23;85.68;100562.78;5076119;28;45615;-84
2022/11/25 01:36:12;;;;;;;;;4.50;4.00;;;;;11.22;85.93;100568.88;5074154;28;45518;-84
2022/11/25 01:38:38;;;;;;;;;6.00;5.25;;;;;10.77;85.78;100509.72;5078374;28;45079;-83
2022/11/25 01:41:06;;;;;;;;;4.00;3.00;;;;;11.03;86.33;100556.94;5074847;28;45444;-84
2022/11/25 01:43:31;;;;;;;;;3.75;3.75;;;;;10.68;86.08;100505.94;5076812;28;45398;-83
2022/11/25 01:46:12;;;;;;;;;4.25;4.00;;;;;11.11;86.20;100589.63;5072296;28;45442;-84
2022/11/25 01:48:42;;;;;;;;;3.25;3.25;;;;;11.10;86.55;100598.38;5070542;28;45005;-84
2022/11/25 01:51:22;;;;;;;;;2.00;2.00;;;;;10.80;86.30;100543.13;5074788;28;45209;-84
2022/11/25 01:53:49;;;;;;;;;3.00;3.00;;;;;10.82;86.46;100549.31;5071817;28;45307;-88
2022/11/25 01:56:15;;;;;;;;;3.00;2.25;;;;;11.04;86.64;100596.44;5072012;28;45564;-84
2022/11/25 01:58:43;;;;;;;;;3.75;3.75;;;;;10.92;86.56;100580.28;5055490;28;44983;-84
2022/11/25 02:01:09;;;;;;;;;2.00;2.00;;;;;10.66;86.38;100537.44;5053070;28;45450;-84
2022/11/25 02:03:41;;;;;;;;;4.00;3.00;;;;;11.00;86.00;100609.47;5057153;28;46104;-84
2022/11/25 02:06:11;;;;;;;;;2.25;2.25;;;;;10.50;85.97;100522.03;5066231;28;45120;-84
2022/11/25 02:08:37;;;;;;;;;3.00;3.00;;;;;10.40;85.58;100522.59;5057391;28;45438;-84
2022/11/25 02:11:03;;;;;;;;;2.75;2.75;;;;;10.80;85.40;100598.31;5052652;28;45049;-84
2022/11/25 02:13:30;;;;;;;;;2.25;2.00;;;;;10.91;85.57;100625.84;5066231;28;45381;-84
2022/11/25 02:15:56;;;;;;;;;2.00;2.00;;;;;10.55;85.45;100575.63;5074043;28;45567;-83
2022/11/25 02:18:21;;;;;;;;;3.00;2.00;;;;;10.71;85.24;100621.69;5060047;28;45163;-84
2022/11/25 02:20:47;;;;;;;;;3.00;1.75;;;;;10.68;85.25;100622.47;5048910;28;45620;-83
2022/11/25 02:23:27;;;;;;;;;3.00;3.00;;;;;10.76;84.71;100639.38;5054322;28;45787;-84
2022/11/25 02:25:53;;;;;;;;;2.50;2.50;;;;;10.50;84.85;100611.38;5047757;28;45288;-84
2022/11/25 02:28:22;;;;;;;;;2.00;2.00;;;;;10.52;84.37;100631.59;5044247;28;45503;-84
2022/11/25 02:30:49;;;;;;;;;3.00;2.00;;;;;10.58;84.68;100660.69;5065068;28;46032;-84
2022/11/25 02:33:15;;;;;;;;;3.00;3.00;;;;;10.53;84.80;100648.25;5068431;28;45410;-83
2022/11/25 02:35:42;;;;;;;;;3.00;3.00;;;;;10.36;84.64;100620.53;5055053;28;45558;-84
2022/11/25 02:38:15;;;;;;;;;3.75;3.00;;;;;10.00;84.48;100564.19;5056738;28;44993;-84
2022/11/25 02:41:04;;;;;;;;;2.00;2.00;;;;;10.45;84.48;100657.63;5049101;28;45376;-85
2022/11/25 02:43:30;;;;;;;;;2.00;2.00;;;;;10.02;84.45;100599.25;5039056;28;45581;-84
2022/11/25 02:46:05;;;;;;;;;2.50;2.50;;;;;10.15;84.71;100625.91;5048128;28;45586;-84
2022/11/25 02:48:33;;;;;;;;;2.75;2.75;;;;;10.07;84.87;100621.28;5043567;28;45319;-84
2022/11/25 02:50:59;;;;;;;;;2.00;2.00;;;;;10.04;84.78;100625.53;5038637;28;45352;-84
2022/11/25 02:53:25;;;;;;;;;2.00;2.00;;;;;10.28;84.93;100673.69;5035641;28;45430;-84
2022/11/25 02:55:51;;;;;;;;;2.00;1.75;;;;;9.96;85.39;100627.91;5037426;28;47159;-84
2022/11/25 02:58:17;;;;;;;;;2.25;1.00;;;;;10.25;85.89;100683.22;5037489;28;45400;-83
2022/11/25 03:00:43;;;;;;;;;2.50;2.00;;;;;9.96;85.91;100627.91;5021092;28;45567;-84
2022/11/25 03:03:08;;;;;;;;;1.00;1.00;;;;;9.74;85.41;100596.50;5034972;28;46539;-83
2022/11/25 03:05:34;;;;;;;;;2.00;1.00;;;;;10.26;85.38;100691.16;5042426;28;45242;-84
2022/11/25 03:07:59;;;;;;;;;2.00;2.00;;;;;10.11;85.58;100671.31;5037867;28;45599;-84
2022/11/25 03:10:25;;;;;;;;;1.25;1.25;;;;;9.81;84.90;100620.41;5040247;28;45416;-84
2022/11/25 03:12:51;;;;;;;;;2.00;2.00;;;;;10.16;85.44;100686.38;5035146;28;46821;-85
2022/11/25 03:15:16;;;;;;;;;2.00;2.00;;;;;10.26;85.24;100708.66;5049428;28;45551;-85
2022/11/25 03:17:42;;;;;;;;;2.25;2.00;;;;;10.18;85.93;100687.31;5060801;28;45858;-83
2022/11/25 03:20:08;;;;;;;;;1.75;1.75;;;;;9.82;85.48;100637.91;5038526;28;45531;-88
2022/11/25 03:22:35;;;;;;;;;1.50;1.00;;;;;9.97;85.63;100655.06;5056902;28;47516;-84
2022/11/25 03:25:00;;;;;;;;;2.00;1.50;;;;;9.91;85.55;100649.59;5058563;28;46190;-84
2022/11/25 03:27:25;;;;;;;;;1.50;1.50;;;;;9.77;85.69;100623.75;5057965;28;45467;-84
2022/11/25 03:29:51;;;;;;;;;2.50;2.25;;;;;10.24;85.54;100702.44;5059039;28;45337;-83
2022/11/25 03:32:16;;;;;;;;;2.00;2.00;;;;;10.15;85.20;100688.94;5045716;28;47505;-83
2022/11/25 03:34:41;;;;;;;;;2.00;2.00;;;;;10.18;85.41;100702.19;5040778;28;45468;-84
2022/11/25 03:37:07;;;;;;;;;2.75;2.00;;;;;10.20;85.07;100714.56;5041209;28;45448;-84
2022/11/25 03:39:32;;;;;;;;;2.50;2.25;;;;;9.99;85.12;100684.88;5046346;28;45384;-84
2022/11/25 03:41:57;;;;;;;;;3.00;2.00;;;;;10.21;85.13;100725.94;5050538;28;45395;-86
2022/11/25 03:44:23;;;;;;;;;2.75;2.75;;;;;9.92;85.69;100690.75;5045717;28;45415;-84
2022/11/25 03:46:48;;;;;;;;;3.25;3.25;;;;;10.28;85.83;100747.25;5019443;28;45668;-85
2022/11/25 03:49:13;;;;;;;;;2.67;2.67;;;;;10.28;85.99;100743.72;5049937;28;58920;-84
2022/11/25 03:51:39;;;;;;;;;2.75;2.50;;;;;9.83;86.07;100662.44;5059554;28;45893;-84
2022/11/25 03:54:04;;;;;;;;;3.00;2.00;;;;;10.14;85.91;100722.19;5050058;28;45695;-83
2022/11/25 03:56:29;;;;;;;;;4.75;3.50;;;;;9.79;86.12;100663.16;5049795;28;45549;-84
2022/11/25 03:58:55;;;;;;;;;3.00;3.00;;;;;9.96;85.98;100706.69;5041361;28;52610;-84
2022/11/25 04:01:20;;;;;;;;;2.00;1.00;;;;;10.19;85.74;100736.38;5051891;28;45645;-84
2022/11/25 04:03:46;;;;;;;;;4.00;3.00;;;;;9.72;85.74;100664.69;5049285;28;45455;-84
2022/11/25 04:06:11;;;;;;;;;3.50;3.00;;;;;9.97;85.85;100704.94;5061460;28;45103;-84
2022/11/25 04:08:37;;;;;;;;;4.25;4.00;;;;;9.91;85.84;100704.72;5067517;28;45315;-84
2022/11/25 04:11:02;;;;;;;;;3.00;3.00;;;;;9.83;85.73;100701.81;5066181;28;45349;-83
2022/11/25 04:13:28;;;;;;;;;4.75;2.00;;;;;10.14;85.78;100756.31;5063474;28;45101;-84
2022/11/25 04:15:53;;;;;;;;;4.00;3.00;;;;;9.92;85.78;100725.78;5055256;28;45249;-85
2022/11/25 04:18:19;;;;;;;;;3.75;1.75;;;;;10.22;85.90;100781.16;5058351;28;45500;-84
2022/11/25 04:20:46;;;;;;;;;3.50;2.75;;;;;9.99;85.05;100737.38;5061958;28;46882;-84
2022/11/25 04:23:12;;;;;;;;;3.00;3.00;;;;;10.14;85.05;100784.31;5067814;28;45368;-84
2022/11/25 04:25:38;;;;;;;;;5.75;2.50;;;;;9.67;85.71;100704.72;5056197;28;45553;-83
2022/11/25 04:28:04;;;;;;;;;3.00;3.00;;;;;10.16;85.96;100791.44;5054173;28;45375;-83
2022/11/25 04:30:29;;;;;;;;;2.00;2.00;;;;;10.15;86.21;100791.34;5054986;28;46703;-84
2022/11/25 04:32:55;;;;;;;;;2.50;2.50;;;;;9.77;86.23;100722.59;5057860;28;45378;-85
2022/11/25 04:35:20;;;;;;;;;3.00;3.00;;;;;10.18;86.30;100802.88;5067236;28;45410;-83
2022/11/25 04:37:46;;;;;;;;;3.50;2.25;;;;;9.71;86.39;100723.25;5065014;28;45296;-88
2022/11/25 04:40:11;;;;;;;;;3.00;3.00;;;;;9.62;86.55;100709.78;5059540;28;45713;-84
2022/11/25 04:42:38;;;;;;;;;2.75;2.00;;;;;10.06;86.50;100790.19;5063759;28;45444;-84
2022/11/25 04:45:07;;;;;;;;;1.75;1.75;;;;;9.60;86.69;100715.78;5045568;28;45406;-84
2022/11/25 04:47:33;;;;;;;;;3.75;3.00;;;;;10.13;86.57;100799.19;5058674;28;45536;-84
2022/11/25 04:49:59;;;;;;;;;3.00;3.00;;;;;10.08;86.63;100795.50;5044795;28;45655;-84
2022/11/25 04:52:24;;;;;;;;;3.75;3.00;;;;;10.10;86.55;100801.72;5035654;28;45526;-83
2022/11/25 04:54:50;;;;;;;;;3.75;2.50;;;;;10.23;86.96;100827.59;5047881;28;45489;-84
2022/11/25 04:57:15;;;;;;;;;4.50;3.25;;;;;10.24;86.52;100829.41;5043196;28;45359;-84
2022/11/25 04:59:42;;;;;;;;;2.00;1.00;;;;;10.09;85.72;100813.03;5047852;28;45435;-83
2022/11/25 05:02:20;;;;;;;;;4.00;4.00;;;;;10.13;86.12;100830.69;5042103;28;45288;-84
2022/11/25 05:04:47;;;;;;;;;2.75;2.50;;;;;10.20;86.38;100835.38;5037890;28;45300;-84
2022/11/25 05:07:14;;;;;;;;;2.00;1.00;;;;;10.06;86.44;100811.22;5033356;28;45528;-84
2022/11/25 05:09:39;;;;;;;;;4.25;3.00;;;;;9.67;86.64;100741.44;5033042;28;45455;-84
2022/11/25 05:12:07;;;;;;;;;5.75;4.00;;;;;9.70;87.03;100752.03;5049417;28;45444;-83
2022/11/25 05:14:34;;;;;;;;;3.50;2.50;;;;;9.97;86.86;100809.97;5053706;28;45621;-84
2022/11/25 05:17:00;;;;;;;;;4.25;4.25;;;;;9.87;86.92;100784.19;5053087;28;45399;-83
2022/11/25 05:19:25;;;;;;;;;2.25;2.25;;;;;9.81;87.09;100784.88;5035032;28;46199;-83
2022/11/25 05:21:50;;;;;;;;;2.33;2.33;;;;;10.17;87.00;100856.25;5059143;28;55583;-84
2022/11/25 05:24:16;;;;;;;;;3.75;3.25;;;;;9.90;86.83;100818.44;5055912;28;53195;-84
2022/11/25 05:26:41;;;;;;;;;4.00;4.00;;;;;9.69;87.10;100789.63;5055556;28;49914;-84
2022/11/25 05:29:08;;;;;;;;;3.00;3.00;;;;;10.02;87.30;100843.44;5058178;28;59310;-84
2022/11/25 05:31:33;;;;;;;;;4.00;3.00;;;;;10.00;87.34;100847.75;5059960;28;45499;-83
2022/11/25 05:34:00;;;;;;;;;2.00;2.00;;;;;10.00;87.16;100846.81;5061066;28;53581;-83
2022/11/25 05:36:26;;;;;;;;;4.50;3.25;;;;;9.61;87.27;100791.09;5060072;28;45469;-83
2022/11/25 05:38:51;;;;;;;;;2.00;2.00;;;;;10.05;87.51;100882.06;5045331;28;46238;-84
2022/11/25 05:41:16;;;;;;;;;2.33;2.33;;;;;10.01;87.70;100877.53;5063248;28;46972;-83
2022/11/25 05:43:42;;;;;;;;;3.00;3.00;;;;;9.80;87.26;100832.91;5061566;28;45382;-84
2022/11/25 05:46:08;;;;;;;;;3.25;3.25;;;;;9.64;86.89;100813.06;5037360;28;45547;-83
2022/11/25 05:48:34;;;;;;;;;4.00;3.00;;;;;9.86;86.85;100851.56;5043799;28;45567;-84
2022/11/25 05:51:03;;;;;;;;;7.00;3.00;;;;;9.65;86.90;100822.72;5047385;28;45347;-85
2022/11/25 05:53:29;;;;;;;;;3.00;3.00;;;;;10.07;86.32;100899.66;5044878;28;45340;-85
2022/11/25 05:56:02;;;;;;;;;2.00;2.00;;;;;9.95;86.68;100877.25;5044254;28;45489;-84
2022/11/25 05:58:29;;;;;;;;;2.00;1.25;;;;;10.09;87.06;100910.19;5039348;28;45351;-83
2022/11/25 06:00:55;;;;;;;;;3.25;3.00;;;;;9.79;86.65;100866.16;5044765;28;45441;-84
2022/11/25 06:03:25;;;;;;;;;5.75;4.00;;;;;10.07;86.60;100915.41;5038807;28;45432;-86
2022/11/25 06:05:51;;;;;;;;;3.00;3.00;;;;;10.06;86.67;100926.75;5036691;28;45370;-84
2022/11/25 06:08:16;;;;;;;;;2.25;2.25;;;;;9.76;86.87;100871.31;5039985;28;45340;-84
2022/11/25 06:10:42;;;;;;;;;3.25;3.00;;;;;9.56;86.79;100844.28;5025006;28;45360;-84
2022/11/25 06:13:08;;;;;;;;;3.00;2.67;;;;;9.66;86.82;100873.50;5070001;28;44978;-84
2022/11/25 06:15:38;;;;;;;;;4.50;4.25;;;;;9.77;86.91;100895.81;5070841;28;45223;-83
2022/11/25 06:18:07;;;;;;;;;4.25;4.00;;;;;9.84;86.43;100910.97;5042198;28;46609;-83
2022/11/25 06:20:33;;;;;;;;;5.50;4.00;;;;;9.79;86.75;100897.66;5040336;28;45292;-84
2022/11/25 06:22:58;;;;;;;;;2.75;2.75;;;;;9.79;86.91;100904.63;5059547;28;45427;-84
2022/11/25 06:25:30;;;;;;;;;3.25;3.00;;;;;10.00;86.83;100941.34;5045828;28;45524;-84
2022/11/25 06:27:56;;;;;;;;;4.75;4.00;;;;;9.83;87.08;100910.06;5050632;28;45444;-84
2022/11/25 06:30:21;;;;;;;;;7.00;4.75;;;;;9.99;87.13;100935.19;5050112;28;45526;-83
2022/11/25 06:32:46;;;;;;;;;5.00;5.00;;;;;9.98;87.09;100943.03;5053260;28;51528;-83
2022/11/25 06:35:12;;;;;;;;;3.00;3.00;;;;;9.40;86.92;100852.31;5050651;28;45257;-83
2022/11/25 06:37:38;;;;;;;;;4.00;3.00;;;;;9.83;87.20;100946.81;5050434;28;45608;-84
2022/11/25 06:40:04;;;;;;;;;3.50;3.50;;;;;9.74;87.10;100935.94;5073257;28;45543;-86
2022/11/25 06:42:30;;;;;;;;;7.00;5.00;;;;;9.57;87.21;100914.28;5039346;28;45077;-86
2022/11/25 06:44:55;;;;;;;;;5.00;3.50;;;;;9.41;87.24;100892.56;5044629;28;45513;-83
2022/11/25 06:47:21;;;;;;;;;4.25;3.50;;;;;9.38;87.28;100887.22;5052553;28;46292;-84
2022/11/25 06:49:46;;;;;;;;;10.00;8.75;;;;;9.50;87.04;100912.22;5048603;28;45269;-84
2022/11/25 06:52:11;;;;;;;;;7.25;5.75;;;;;9.86;87.08;100966.19;5052767;28;45453;-83
2022/11/25 06:54:40;;;;;;;;;5.00;4.00;;;;;9.74;87.32;100946.44;5051187;28;45376;-83
2022/11/25 06:57:06;;;;;;;;;6.50;5.00;;;;;9.64;87.31;100931.16;5046454;28;46020;-84
2022/11/25 06:59:31;;;;;;;;;6.50;4.25;;;;;10.11;87.26;100989.97;5052916;28;45132;-83
2022/11/25 07:01:57;;;;;;;;;4.25;4.00;;;;;10.01;87.18;100969.41;5052390;28;45105;-88
2022/11/25 07:04:22;;;;;;;;;7.00;5.50;;;;;9.93;87.18;100960.31;5052836;28;45148;-83
2022/11/25 07:06:49;;;;;;;;;8.00;7.00;;;;;10.09;87.10;100983.72;5052699;28;45140;-92
2022/11/25 07:09:14;;;;;;;;;14.75;11.00;;;;;10.03;87.10;100975.63;5041230;28;46089;-84
2022/11/25 07:11:41;;;;;;;;;12.33;11.00;;;;;10.15;86.89;101001.47;5042857;28;45455;-83
2022/11/25 07:14:10;;;;;;;;;10.00;8.75;;;;;10.00;86.86;100975.47;5033506;28;45434;-83
2022/11/25 07:16:37;;;;;;;;;9.25;8.00;;;;;10.10;86.87;100998.69;5037565;28;47316;-83
2022/11/25 07:19:03;;;;;;;;;8.00;7.75;;;;;10.03;86.69;100988.75;5043589;28;45431;-84
2022/11/25 07:21:31;;;;;;;;;7.75;7.00;;;;;10.04;86.68;100994.03;5039740;28;45423;-85
2022/11/25 07:23:58;;;;;;;;;10.00;9.00;;;;;9.80;86.82;100965.09;5038558;28;45481;-84
2022/11/25 07:26:28;;;;;;;;;5.00;5.00;;;;;10.13;86.87;101021.53;5032970;28;45646;-84
2022/11/25 07:28:57;;;;;;;;;10.75;8.00;;;;;9.79;86.94;100965.91;5019229;28;45831;-84
2022/11/25 07:31:25;;;;;;;;;9.25;7.50;;;;;10.13;86.98;101027.69;5037184;28;45607;-92
2022/11/25 07:33:56;;;;;;;;;4.25;4.00;;;;;10.13;86.97;101027.69;5044954;28;45198;-87
2022/11/25 07:36:22;;;;;;;;;9.00;7.50;;;;;9.62;86.80;100940.72;5040218;28;45479;-85
2022/11/25 07:38:48;;;;;;;;;8.50;8.50;;;;;10.13;86.80;101030.31;5043091;28;45385;-91
2022/11/25 07:41:19;;;;;;;;;7.75;6.50;;;;;9.63;87.13;100947.75;5033973;28;45466;-85
2022/11/25 07:43:49;;;;;;;;;8.75;8.00;;;;;9.99;86.79;101006.09;5034218;28;45471;-92
2022/11/25 07:46:27;;;;;;;;;7.75;7.00;;;;;10.16;86.67;101045.31;5044752;28;45439;-84
2022/11/25 07:48:54;;;;;;;;;8.75;8.00;;;;;10.16;86.82;101045.31;5025929;28;45932;-84
2022/11/25 07:51:21;;;;;;;;;6.75;6.75;;;;;10.17;86.75;101050.59;5049021;28;45367;-84
2022/11/25 07:53:48;;;;;;;;;9.75;9.00;;;;;10.19;86.70;101050.66;5041528;28;45468;-84
2022/11/25 07:56:14;;;;;;;;;11.00;9.00;;;;;10.18;86.82;101057.66;5044346;28;46971;-85
2022/11/25 07:58:41;;;;;;;;;11.00;9.00;;;;;10.22;86.79;101072.72;5043607;28;45327;-85
2022/11/25 08:01:08;;;;;;;;;10.00;10.00;;;;;9.77;86.38;100998.19;5049333;28;45187;-84
2022/11/25 08:03:35;;;;;;;;;12.50;12.50;;;;;9.98;86.70;101034.94;5050105;28;45385;-85
2022/11/25 08:06:06;;;;;;;;;8.50;8.00;;;;;10.22;86.92;101079.69;5045973;28;47699;-86
2022/11/25 08:08:33;;;;;;;;;8.00;7.50;;;;;9.78;86.59;101008.75;5039664;28;45939;-87
2022/11/25 08:10:58;;;;;;;;;8.75;8.25;;;;;9.66;86.08;100995.13;5044791;28;45533;-85
2022/11/25 08:13:24;;;;;;;;;10.00;9.00;;;;;9.80;85.82;101030.72;5040258;28;45471;-84
2022/11/25 08:15:51;;;;;;;;;7.50;7.50;;;;;10.23;86.05;101115.63;5040603;28;48091;-81
2022/11/25 08:18:16;;;;;;;;;11.00;9.00;;;;;10.23;86.66;101127.03;5031284;28;45788;-83
2022/11/25 08:20:42;;;;;;;;;12.50;10.25;;;;;9.91;86.30;101059.16;5033689;28;45443;-83
2022/11/25 08:23:08;;;;;;;;;14.50;12.00;;;;;10.24;86.36;101123.59;5020821;28;45460;-85
2022/11/25 08:25:38;;;;;;;;;16.25;15.00;;;;;10.08;86.42;101106.28;5040326;28;45776;-82
2022/11/25 08:28:04;;;;;;;;;16.75;13.75;;;;;10.24;86.38;101127.97;5032730;28;45646;-83
2022/11/25 08:30:29;;;;;;;;;12.25;10.50;;;;;10.16;86.07;101119.75;5032110;28;45456;-87
2022/11/25 08:32:56;;;;;;;;;12.25;10.00;;;;;10.13;86.32;101103.84;5032323;28;45456;-82
2022/11/25 08:35:22;;;;;;;;;17.25;13.75;;;;;10.24;86.16;101130.59;5012565;28;47128;-82
2022/11/25 08:37:47;;;;;;;;;14.00;11.33;;;;;10.18;86.16;101123.31;5010988;28;47226;-82
2022/11/25 08:40:12;;;;;;;;;14.33;11.33;;;;;9.83;86.17;101056.19;5032127;28;45636;-82
2022/11/25 08:42:38;;;;;;;;;10.75;10.00;;;;;10.09;86.03;101094.03;5048307;28;45195;-84
2022/11/25 08:45:04;;;;;;;;;14.75;14.00;;;;;10.24;86.00;101128.84;5046552;28;45895;-84
2022/11/25 08:47:30;;;;;;;;;11.25;10.50;;;;;10.43;85.90;101161.16;5047537;28;45237;-84
2022/11/25 08:49:55;;;;;;;;;12.75;9.75;;;;;10.03;85.95;101086.78;5029748;28;45340;-82
2022/11/25 08:52:21;;;;;;;;;12.25;10.50;;;;;10.45;86.19;101163.03;5041726;28;45386;-83
2022/11/25 08:54:47;;;;;;;;;15.75;11.75;;;;;10.28;85.96;101141.28;5045142;28;47132;-83
2022/11/25 08:57:13;;;;;;;;;13.75;11.00;;;;;10.20;86.11;101126.91;5034195;28;45419;-82
2022/11/25 08:59:39;;;;;;;;;8.75;8.25;;;;;10.20;86.16;101121.66;5030059;28;46453;-82
2022/11/25 09:02:05;;;;;;;;;12.25;11.00;;;;;10.27;86.18;101138.59;5029337;28;45375;-82
2022/11/25 09:04:30;;;;;;;;;13.50;11.75;;;;;10.29;86.22;101145.69;5015119;28;45713;-82
2022/11/25 09:06:55;;;;;;;;;11.00;9.67;;;;;10.08;86.29;101108.00;5009679;28;49844;-82
2022/11/25 09:09:21;;;;;;;;;12.50;10.25;;;;;10.32;86.19;101137.97;5008928;28;45482;-82
2022/11/25 09:11:46;;;;;;;;;13.75;10.75;;;;;10.71;86.38;101193.00;5009842;28;45490;-82
2022/11/25 09:14:11;;;;;;;;;12.25;11.00;;;;;10.55;85.96;101156.44;5009523;28;45730;-82
2022/11/25 09:16:37;;;;;;;;;8.67;7.67;;;;;10.70;86.16;101182.44;5008093;28;57696;-82
2022/11/25 09:19:03;;;;;;;;;9.25;8.25;;;;;10.78;85.74;101178.38;5010222;28;45532;-83
2022/11/25 09:21:28;;;;;;;;;10.50;9.25;;;;;10.90;85.77;101197.28;5010376;28;45388;-83
2022/11/25 09:23:53;;;;;;;;;13.25;9.00;;;;;10.83;85.47;101171.56;5010139;28;46767;-82
2022/11/25 09:26:28;;;;;;;;;9.00;8.75;;;;;10.96;85.54;101196.63;5010329;28;45376;-83
2022/11/25 09:28:54;;;;;;;;;13.50;11.25;;;;;10.96;85.23;101179.13;5021676;28;45422;-83
2022/11/25 09:31:20;;;;;;;;;8.00;8.00;;;;;10.65;84.95;101128.78;5017524;28;45677;-84
2022/11/25 09:33:46;;;;;;;;;9.25;9.00;;;;;11.26;85.17;101237.31;5010155;28;46222;-83
2022/11/25 09:36:13;;;;;;;;;9.50;9.00;;;;;10.93;85.39;101171.09;5009463;28;45361;-83
2022/11/25 09:38:40;;;;;;;;;11.25;8.25;;;;;10.93;84.78;101175.47;5010480;28;45459;-83
2022/11/25 09:46:40;;;;;;;;;10.25;9.25;;;;;11.33;84.63;101241.09;5008986;28;45416;-88
2022/11/25 09:47:15;;;;;;;;;6.25;5.00;;;;;11.34;84.80;101248.16;5010402;28;45514;-83
2022/11/25 09:49:49;;;;;;;;;6.75;5.50;;;;;11.34;84.82;101256.06;5011041;28;45628;-84
2022/11/25 09:52:48;;;;;;;;;7.25;5.25;;;;;11.35;84.39;101257.84;5015563;28;45581;-82
2022/11/25 09:55:16;;;;;;;;;6.50;5.00;;;;;11.31;84.40;101259.44;5012991;28;46080;-82
2022/11/25 09:57:50;;;;;;;;;8.50;5.50;;;;;11.32;84.54;101270.84;5006104;28;45825;-85
2022/11/25 10:00:19;;;;;;;;;9.00;6.25;;;;;11.33;84.46;101281.47;5012943;28;45343;-82
2022/11/25 10:02:59;;;;;;;;;9.00;7.75;;;;;10.98;84.29;101216.00;5012817;28;45463;-84
2022/11/25 10:05:35;;;;;;;;;6.25;5.25;;;;;11.16;84.56;101256.19;5011526;28;45670;-83
2022/11/25 10:08:10;;;;;;;;;7.75;5.00;;;;;11.36;84.07;101278.03;5003095;28;46280;-81
2022/11/25 10:10:43;;;;;;;;;9.25;5.25;;;;;11.37;84.06;101286.00;5031631;28;45545;-82
2022/11/25 10:13:28;;;;;;;;;5.75;5.00;;;;;11.36;84.05;101289.47;5031867;28;45935;-83
2022/11/25 10:16:00;;;;;;;;;7.50;7.00;;;;;11.34;84.32;101285.91;5031469;28;46667;-83
2022/11/25 10:18:38;;;;;;;;;5.50;5.00;;;;;11.05;84.27;101239.09;5031313;28;45758;-83
2022/11/25 10:21:04;;;;;;;;;6.75;5.00;;;;;11.15;84.15;101246.53;5032208;28;45458;-84
2022/11/25 10:23:34;;;;;;;;;5.75;5.00;;;;;11.48;83.98;101306.59;5031536;28;45753;-83
2022/11/25 10:26:15;;;;;;;;;10.50;6.00;;;;;11.54;83.57;101312.09;5032878;28;45755;-82
2022/11/25 10:28:51;;;;;;;;;4.00;3.00;;;;;10.97;83.10;101206.31;5031722;28;45475;-83
2022/11/25 10:31:20;;;;;;;;;6.25;5.25;;;;;11.72;83.47;101328.59;5029935;28;45416;-83
2022/11/25 10:33:49;;;;;;;;;1.25;1.00;;;;;11.40;83.03;101269.44;5007190;28;45352;-83
2022/11/25 10:36:20;;;;;;;;;3.25;2.25;;;;;11.76;83.02;101325.25;5030521;28;46106;-87
2022/11/25 10:39:13;;;;;;;;;8.00;4.25;;;;;11.74;82.59;101340.13;5031783;28;46054;-83
2022/11/25 10:41:48;;;;;;;;;5.50;3.25;;;;;11.61;82.73;101322.03;5032250;28;45420;-82
2022/11/25 10:44:22;;;;;;;;;3.75;3.50;;;;;11.30;82.46;101273.44;5031244;28;45902;-90
2022/11/25 10:47:02;;;;;;;;;5.00;4.25;;;;;11.58;82.58;101316.66;5038335;28;47376;-82
2022/11/25 10:50:04;;;;;;;;;6.25;4.50;;;;;11.71;82.78;101340.00;5028781;28;45848;-90
2022/11/25 10:52:37;;;;;;;;;6.00;5.00;;;;;11.79;82.80;101342.94;5013992;28;45944;-82
2022/11/25 10:55:24;;;;;;;;;4.00;4.00;;;;;11.62;82.67;101303.69;5031368;28;45456;-82
2022/11/25 10:57:54;;;;;;;;;6.75;4.00;;;;;11.35;82.11;101253.47;5030355;28;45731;-85
2022/11/25 11:00:37;;;;;;;;;4.00;3.25;;;;;11.59;81.79;101292.13;5029158;28;45457;-88
2022/11/25 11:03:24;;;;;;;;;4.50;4.50;;;;;11.86;82.05;101345.00;5030828;28;45541;-91
2022/11/25 11:05:52;;;;;;;;;9.00;4.50;;;;;11.76;81.97;101317.38;5032475;28;45637;-83
2022/11/25 11:08:24;;;;;;;;;5.75;4.00;;;;;11.74;82.22;101307.63;5032791;28;45699;-91
2022/11/25 11:11:12;;;;;;;;;6.50;4.00;;;;;12.02;81.92;101355.31;5033443;28;45443;-82
2022/11/25 11:13:38;;;;;;;;;4.75;3.75;;;;;11.59;81.74;101261.44;5026445;28;45503;-83
2022/11/25 11:16:19;;;;;;;;;5.50;4.00;;;;;11.70;81.65;101282.00;5033041;28;45159;-82
2022/11/25 11:18:45;;;;;;;;;4.00;3.50;;;;;11.71;81.44;101276.78;5033054;28;45704;-82
2022/11/25 11:21:22;;;;;;;;;5.50;3.25;;;;;12.23;81.05;101362.22;5032916;28;45440;-82
2022/11/25 11:23:51;;;;;;;;;4.00;3.00;;;;;12.17;81.53;101339.19;5030920;28;45284;-82
2022/11/25 11:26:29;;;;;;;;;5.00;4.00;;;;;12.13;80.97;101329.34;5051725;28;45072;-82
2022/11/25 11:29:05;;;;;;;;;2.50;2.00;;;;;12.34;81.28;101369.69;5049751;28;46351;-88
2022/11/25 11:31:38;;;;;;;;;3.25;3.00;;;;;11.97;81.14;101301.53;5049825;28;45601;-81
2022/11/25 11:34:21;;;;;;;;;5.25;4.00;;;;;12.44;80.82;101372.66;5049032;28;45344;-82